sensor_id;sensor_type;location;lat;lon;timestamp;P1;durP1;ratioP1;P2;durP2;ratioP2
68593;SDS011;55563;52.416;13.548;2023-04-07T00:00:03;5.38;;;3.42;;
68593;SDS011;55563;52.416;13.548;2023-04-07T00:02:22;7.10;;;3.72;;
68593;SDS011;55563;52.416;13.548;2023-04-07T00:04:23;6.38;;;3.60;;
68593;SDS011;55563;52.416;13.548;2023-04-07T00:06:23;6.00;;;3.72;;
68593;SDS011;55563;52.416;13.548;2023-04-07T00:08:24;5.57;;;3.92;;
68593;SDS011;55563;52.416;13.548;2023-04-07T00:10:25;7.05;;;3.97;;
68593;SDS011;55563;52.416;13.548;2023-04-07T00:12:26;6.53;;;4.22;;
68593;SDS011;55563;52.416;13.548;2023-04-07T00:14:27;7.22;;;4.30;;
68593;SDS011;55563;52.416;13.548;2023-04-07T00:16:28;7.22;;;4.30;;
68593;SDS011;55563;52.416;13.548;2023-04-07T00:18:29;6.63;;;3.80;;
68593;SDS011;55563;52.416;13.548;2023-04-07T00:20:29;6.63;;;4.20;;
68593;SDS011;55563;52.416;13.548;2023-04-07T00:22:30;5.72;;;3.80;;
68593;SDS011;55563;52.416;13.548;2023-04-07T00:24:31;6.35;;;3.78;;
68593;SDS011;55563;52.416;13.548;2023-04-07T00:26:31;6.70;;;4.22;;
68593;SDS011;55563;52.416;13.548;2023-04-07T00:28:32;7.10;;;4.20;;
68593;SDS011;55563;52.416;13.548;2023-04-07T00:30:32;8.90;;;4.70;;
68593;SDS011;55563;52.416;13.548;2023-04-07T00:32:33;6.30;;;4.13;;
68593;SDS011;55563;52.416;13.548;2023-04-07T00:36:35;7.88;;;4.45;;
68593;SDS011;55563;52.416;13.548;2023-04-07T00:38:36;6.93;;;4.32;;
68593;SDS011;55563;52.416;13.548;2023-04-07T00:40:37;7.68;;;4.15;;
68593;SDS011;55563;52.416;13.548;2023-04-07T00:42:38;6.85;;;4.70;;
68593;SDS011;55563;52.416;13.548;2023-04-07T00:44:38;6.55;;;4.40;;
68593;SDS011;55563;52.416;13.548;2023-04-07T00:46:40;6.60;;;4.35;;
68593;SDS011;55563;52.416;13.548;2023-04-07T00:48:40;8.95;;;4.70;;
68593;SDS011;55563;52.416;13.548;2023-04-07T00:50:41;7.97;;;4.85;;
68593;SDS011;55563;52.416;13.548;2023-04-07T00:52:42;7.43;;;4.85;;
68593;SDS011;55563;52.416;13.548;2023-04-07T00:54:43;7.13;;;4.70;;
68593;SDS011;55563;52.416;13.548;2023-04-07T00:56:46;6.68;;;4.30;;
68593;SDS011;55563;52.416;13.548;2023-04-07T00:58:46;7.90;;;4.65;;
68593;SDS011;55563;52.416;13.548;2023-04-07T01:02:54;8.05;;;4.40;;
68593;SDS011;55563;52.416;13.548;2023-04-07T01:05:16;8.48;;;4.82;;
68593;SDS011;55563;52.416;13.548;2023-04-07T01:07:31;8.82;;;4.60;;
68593;SDS011;55563;52.416;13.548;2023-04-07T01:09:55;8.18;;;4.88;;
68593;SDS011;55563;52.416;13.548;2023-04-07T01:12:08;7.75;;;4.60;;
68593;SDS011;55563;52.416;13.548;2023-04-07T01:14:24;8.85;;;4.65;;
68593;SDS011;55563;52.416;13.548;2023-04-07T01:16:51;8.63;;;5.28;;
68593;SDS011;55563;52.416;13.548;2023-04-07T01:19:00;7.50;;;4.35;;
68593;SDS011;55563;52.416;13.548;2023-04-07T01:21:09;7.50;;;4.63;;
68593;SDS011;55563;52.416;13.548;2023-04-07T01:23:17;6.38;;;3.97;;
68593;SDS011;55563;52.416;13.548;2023-04-07T01:30:15;8.98;;;4.35;;
68593;SDS011;55563;52.416;13.548;2023-04-07T01:32:17;8.60;;;4.82;;
68593;SDS011;55563;52.416;13.548;2023-04-07T01:34:19;9.05;;;4.70;;
68593;SDS011;55563;52.416;13.548;2023-04-07T01:36:23;8.80;;;4.75;;
68593;SDS011;55563;52.416;13.548;2023-04-07T01:38:27;6.95;;;4.55;;
68593;SDS011;55563;52.416;13.548;2023-04-07T01:40:29;7.85;;;4.93;;
68593;SDS011;55563;52.416;13.548;2023-04-07T01:42:34;8.48;;;4.95;;
68593;SDS011;55563;52.416;13.548;2023-04-07T01:44:37;7.10;;;4.38;;
68593;SDS011;55563;52.416;13.548;2023-04-07T01:46:38;7.78;;;4.40;;
68593;SDS011;55563;52.416;13.548;2023-04-07T01:48:38;6.70;;;4.13;;
68593;SDS011;55563;52.416;13.548;2023-04-07T01:50:40;8.02;;;4.35;;
68593;SDS011;55563;52.416;13.548;2023-04-07T01:52:42;7.35;;;4.55;;
68593;SDS011;55563;52.416;13.548;2023-04-07T01:54:44;8.55;;;4.70;;
68593;SDS011;55563;52.416;13.548;2023-04-07T01:56:45;7.60;;;4.38;;
68593;SDS011;55563;52.416;13.548;2023-04-07T01:58:46;6.88;;;3.90;;
68593;SDS011;55563;52.416;13.548;2023-04-07T02:00:50;6.68;;;4.30;;
68593;SDS011;55563;52.416;13.548;2023-04-07T02:02:54;7.05;;;4.28;;
68593;SDS011;55563;52.416;13.548;2023-04-07T02:05:00;7.25;;;4.13;;
68593;SDS011;55563;52.416;13.548;2023-04-07T02:07:08;6.95;;;4.60;;
68593;SDS011;55563;52.416;13.548;2023-04-07T02:09:19;6.50;;;4.30;;
68593;SDS011;55563;52.416;13.548;2023-04-07T02:11:22;8.00;;;4.60;;
68593;SDS011;55563;52.416;13.548;2023-04-07T02:13:27;6.55;;;3.95;;
68593;SDS011;55563;52.416;13.548;2023-04-07T02:15:29;6.18;;;3.90;;
68593;SDS011;55563;52.416;13.548;2023-04-07T02:17:31;6.93;;;3.92;;
68593;SDS011;55563;52.416;13.548;2023-04-07T02:19:35;8.63;;;4.38;;
68593;SDS011;55563;52.416;13.548;2023-04-07T02:21:37;6.70;;;3.97;;
68593;SDS011;55563;52.416;13.548;2023-04-07T02:23:39;8.85;;;4.50;;
68593;SDS011;55563;52.416;13.548;2023-04-07T02:25:40;6.07;;;4.00;;
68593;SDS011;55563;52.416;13.548;2023-04-07T02:27:41;6.50;;;3.88;;
68593;SDS011;55563;52.416;13.548;2023-04-07T02:29:41;6.47;;;4.00;;
68593;SDS011;55563;52.416;13.548;2023-04-07T02:31:42;6.65;;;4.07;;
68593;SDS011;55563;52.416;13.548;2023-04-07T02:33:43;6.53;;;3.75;;
68593;SDS011;55563;52.416;13.548;2023-04-07T02:35:44;6.57;;;4.07;;
68593;SDS011;55563;52.416;13.548;2023-04-07T02:37:44;6.88;;;4.70;;
68593;SDS011;55563;52.416;13.548;2023-04-07T02:39:46;6.50;;;3.90;;
68593;SDS011;55563;52.416;13.548;2023-04-07T02:41:46;6.70;;;3.75;;
68593;SDS011;55563;52.416;13.548;2023-04-07T02:43:47;6.28;;;4.00;;
68593;SDS011;55563;52.416;13.548;2023-04-07T02:45:50;7.57;;;4.10;;
68593;SDS011;55563;52.416;13.548;2023-04-07T02:47:51;6.65;;;4.25;;
68593;SDS011;55563;52.416;13.548;2023-04-07T02:49:51;8.40;;;5.25;;
68593;SDS011;55563;52.416;13.548;2023-04-07T02:51:52;7.05;;;3.75;;
68593;SDS011;55563;52.416;13.548;2023-04-07T02:53:53;6.82;;;4.18;;
68593;SDS011;55563;52.416;13.548;2023-04-07T02:55:54;6.38;;;4.18;;
68593;SDS011;55563;52.416;13.548;2023-04-07T02:57:54;6.60;;;4.20;;
68593;SDS011;55563;52.416;13.548;2023-04-07T03:00:10;7.32;;;5.07;;
68593;SDS011;55563;52.416;13.548;2023-04-07T03:02:31;8.00;;;4.32;;
68593;SDS011;55563;52.416;13.548;2023-04-07T03:04:32;7.35;;;4.15;;
68593;SDS011;55563;52.416;13.548;2023-04-07T03:06:34;8.20;;;5.00;;
68593;SDS011;55563;52.416;13.548;2023-04-07T03:08:41;7.25;;;4.20;;
68593;SDS011;55563;52.416;13.548;2023-04-07T03:10:42;6.80;;;4.00;;
68593;SDS011;55563;52.416;13.548;2023-04-07T03:13:14;6.95;;;4.00;;
68593;SDS011;55563;52.416;13.548;2023-04-07T03:15:19;6.38;;;3.72;;
68593;SDS011;55563;52.416;13.548;2023-04-07T03:17:21;6.50;;;3.75;;
68593;SDS011;55563;52.416;13.548;2023-04-07T03:19:23;9.77;;;4.07;;
68593;SDS011;55563;52.416;13.548;2023-04-07T03:21:24;6.78;;;3.88;;
68593;SDS011;55563;52.416;13.548;2023-04-07T03:23:25;6.95;;;3.92;;
68593;SDS011;55563;52.416;13.548;2023-04-07T03:25:30;6.68;;;3.80;;
68593;SDS011;55563;52.416;13.548;2023-04-07T03:27:32;6.53;;;3.92;;
68593;SDS011;55563;52.416;13.548;2023-04-07T03:29:34;6.28;;;3.95;;
68593;SDS011;55563;52.416;13.548;2023-04-07T03:31:37;6.68;;;3.75;;
68593;SDS011;55563;52.416;13.548;2023-04-07T03:33:38;6.93;;;4.30;;
68593;SDS011;55563;52.416;13.548;2023-04-07T03:35:38;6.25;;;3.90;;
68593;SDS011;55563;52.416;13.548;2023-04-07T03:37:40;6.68;;;4.05;;
68593;SDS011;55563;52.416;13.548;2023-04-07T03:39:46;7.00;;;4.10;;
68593;SDS011;55563;52.416;13.548;2023-04-07T03:42:06;7.10;;;3.90;;
68593;SDS011;55563;52.416;13.548;2023-04-07T03:44:08;6.07;;;3.72;;
68593;SDS011;55563;52.416;13.548;2023-04-07T03:46:11;6.18;;;3.90;;
68593;SDS011;55563;52.416;13.548;2023-04-07T03:48:12;7.57;;;4.05;;
68593;SDS011;55563;52.416;13.548;2023-04-07T03:50:21;6.82;;;4.00;;
68593;SDS011;55563;52.416;13.548;2023-04-07T03:52:31;6.97;;;4.28;;
68593;SDS011;55563;52.416;13.548;2023-04-07T03:54:40;7.25;;;3.80;;
68593;SDS011;55563;52.416;13.548;2023-04-07T03:56:41;7.90;;;4.40;;
68593;SDS011;55563;52.416;13.548;2023-04-07T03:58:42;8.00;;;4.90;;
68593;SDS011;55563;52.416;13.548;2023-04-07T04:00:48;6.90;;;4.20;;
68593;SDS011;55563;52.416;13.548;2023-04-07T04:02:49;6.60;;;3.83;;
68593;SDS011;55563;52.416;13.548;2023-04-07T04:04:53;6.72;;;3.67;;
68593;SDS011;55563;52.416;13.548;2023-04-07T04:06:56;6.97;;;4.22;;
68593;SDS011;55563;52.416;13.548;2023-04-07T04:09:08;6.38;;;4.07;;
68593;SDS011;55563;52.416;13.548;2023-04-07T04:11:13;7.05;;;4.07;;
68593;SDS011;55563;52.416;13.548;2023-04-07T04:13:21;7.28;;;3.92;;
68593;SDS011;55563;52.416;13.548;2023-04-07T04:15:23;7.63;;;4.22;;
68593;SDS011;55563;52.416;13.548;2023-04-07T04:17:24;5.65;;;3.78;;
68593;SDS011;55563;52.416;13.548;2023-04-07T04:19:26;7.03;;;4.22;;
68593;SDS011;55563;52.416;13.548;2023-04-07T04:21:29;8.02;;;4.38;;
68593;SDS011;55563;52.416;13.548;2023-04-07T04:23:30;7.13;;;4.00;;
68593;SDS011;55563;52.416;13.548;2023-04-07T04:25:32;7.38;;;4.25;;
68593;SDS011;55563;52.416;13.548;2023-04-07T04:27:36;6.18;;;4.00;;
68593;SDS011;55563;52.416;13.548;2023-04-07T04:29:44;6.65;;;3.85;;
68593;SDS011;55563;52.416;13.548;2023-04-07T04:31:47;8.43;;;4.18;;
68593;SDS011;55563;52.416;13.548;2023-04-07T04:33:48;7.78;;;4.35;;
68593;SDS011;55563;52.416;13.548;2023-04-07T04:35:49;9.15;;;4.70;;
68593;SDS011;55563;52.416;13.548;2023-04-07T04:37:53;7.32;;;4.10;;
68593;SDS011;55563;52.416;13.548;2023-04-07T04:39:54;7.32;;;4.10;;
68593;SDS011;55563;52.416;13.548;2023-04-07T04:41:57;7.13;;;4.13;;
68593;SDS011;55563;52.416;13.548;2023-04-07T04:44:04;7.95;;;5.30;;
68593;SDS011;55563;52.416;13.548;2023-04-07T04:46:05;9.95;;;4.70;;
68593;SDS011;55563;52.416;13.548;2023-04-07T04:48:11;6.63;;;4.00;;
68593;SDS011;55563;52.416;13.548;2023-04-07T04:50:11;6.35;;;3.88;;
68593;SDS011;55563;52.416;13.548;2023-04-07T04:52:14;6.63;;;4.13;;
68593;SDS011;55563;52.416;13.548;2023-04-07T04:54:18;5.97;;;3.85;;
68593;SDS011;55563;52.416;13.548;2023-04-07T04:56:19;6.55;;;4.07;;
68593;SDS011;55563;52.416;13.548;2023-04-07T04:58:22;6.25;;;4.13;;
68593;SDS011;55563;52.416;13.548;2023-04-07T05:00:27;6.32;;;3.88;;
68593;SDS011;55563;52.416;13.548;2023-04-07T05:02:34;7.72;;;4.00;;
68593;SDS011;55563;52.416;13.548;2023-04-07T05:04:37;6.65;;;4.10;;
68593;SDS011;55563;52.416;13.548;2023-04-07T05:06:51;8.35;;;5.32;;
68593;SDS011;55563;52.416;13.548;2023-04-07T05:08:54;6.03;;;4.07;;
68593;SDS011;55563;52.416;13.548;2023-04-07T05:10:59;6.63;;;4.10;;
68593;SDS011;55563;52.416;13.548;2023-04-07T05:13:05;6.80;;;4.03;;
68593;SDS011;55563;52.416;13.548;2023-04-07T05:15:06;7.50;;;4.28;;
68593;SDS011;55563;52.416;13.548;2023-04-07T05:17:09;7.28;;;4.07;;
68593;SDS011;55563;52.416;13.548;2023-04-07T05:19:10;7.15;;;4.47;;
68593;SDS011;55563;52.416;13.548;2023-04-07T05:21:10;7.53;;;4.30;;
68593;SDS011;55563;52.416;13.548;2023-04-07T05:23:11;8.00;;;4.70;;
68593;SDS011;55563;52.416;13.548;2023-04-07T05:25:12;7.35;;;4.97;;
68593;SDS011;55563;52.416;13.548;2023-04-07T05:27:15;8.40;;;5.10;;
68593;SDS011;55563;52.416;13.548;2023-04-07T05:29:18;7.88;;;4.43;;
68593;SDS011;55563;52.416;13.548;2023-04-07T05:31:18;7.43;;;4.20;;
68593;SDS011;55563;52.416;13.548;2023-04-07T05:33:21;8.95;;;4.32;;
68593;SDS011;55563;52.416;13.548;2023-04-07T05:35:25;6.57;;;4.15;;
68593;SDS011;55563;52.416;13.548;2023-04-07T05:37:30;6.05;;;4.03;;
68593;SDS011;55563;52.416;13.548;2023-04-07T05:39:33;7.55;;;4.00;;
68593;SDS011;55563;52.416;13.548;2023-04-07T05:43:36;9.82;;;4.30;;
68593;SDS011;55563;52.416;13.548;2023-04-07T05:45:38;7.32;;;4.20;;
68593;SDS011;55563;52.416;13.548;2023-04-07T05:47:40;6.80;;;4.13;;
68593;SDS011;55563;52.416;13.548;2023-04-07T05:49:42;6.97;;;4.13;;
68593;SDS011;55563;52.416;13.548;2023-04-07T05:51:46;7.72;;;4.28;;
68593;SDS011;55563;52.416;13.548;2023-04-07T05:53:48;8.80;;;4.43;;
68593;SDS011;55563;52.416;13.548;2023-04-07T05:55:50;7.22;;;4.20;;
68593;SDS011;55563;52.416;13.548;2023-04-07T05:58:11;7.65;;;4.60;;
68593;SDS011;55563;52.416;13.548;2023-04-07T06:00:14;8.02;;;4.40;;
68593;SDS011;55563;52.416;13.548;2023-04-07T06:02:20;7.10;;;4.30;;
68593;SDS011;55563;52.416;13.548;2023-04-07T06:04:21;7.10;;;4.43;;
68593;SDS011;55563;52.416;13.548;2023-04-07T06:06:24;7.53;;;4.40;;
68593;SDS011;55563;52.416;13.548;2023-04-07T06:08:26;8.88;;;4.75;;
68593;SDS011;55563;52.416;13.548;2023-04-07T06:10:27;6.85;;;4.50;;
68593;SDS011;55563;52.416;13.548;2023-04-07T06:12:27;8.38;;;4.50;;
68593;SDS011;55563;52.416;13.548;2023-04-07T06:14:29;8.32;;;4.32;;
68593;SDS011;55563;52.416;13.548;2023-04-07T06:16:30;8.00;;;4.60;;
68593;SDS011;55563;52.416;13.548;2023-04-07T06:18:31;7.10;;;4.28;;
68593;SDS011;55563;52.416;13.548;2023-04-07T06:20:32;7.63;;;4.60;;
68593;SDS011;55563;52.416;13.548;2023-04-07T06:22:33;6.80;;;4.20;;
68593;SDS011;55563;52.416;13.548;2023-04-07T06:24:34;6.20;;;3.65;;
68593;SDS011;55563;52.416;13.548;2023-04-07T06:26:37;8.85;;;4.32;;
68593;SDS011;55563;52.416;13.548;2023-04-07T06:28:39;9.35;;;4.50;;
68593;SDS011;55563;52.416;13.548;2023-04-07T06:30:40;6.97;;;4.10;;
68593;SDS011;55563;52.416;13.548;2023-04-07T06:32:44;8.07;;;4.53;;
68593;SDS011;55563;52.416;13.548;2023-04-07T06:34:44;8.07;;;4.43;;
68593;SDS011;55563;52.416;13.548;2023-04-07T06:36:45;7.13;;;4.43;;
68593;SDS011;55563;52.416;13.548;2023-04-07T06:38:46;7.75;;;4.70;;
68593;SDS011;55563;52.416;13.548;2023-04-07T06:40:47;11.65;;;4.40;;
68593;SDS011;55563;52.416;13.548;2023-04-07T06:42:47;7.88;;;4.57;;
68593;SDS011;55563;52.416;13.548;2023-04-07T06:44:56;7.28;;;4.85;;
68593;SDS011;55563;52.416;13.548;2023-04-07T06:46:57;7.78;;;4.50;;
68593;SDS011;55563;52.416;13.548;2023-04-07T06:48:57;7.40;;;4.40;;
68593;SDS011;55563;52.416;13.548;2023-04-07T06:50:58;9.80;;;5.05;;
68593;SDS011;55563;52.416;13.548;2023-04-07T06:52:58;7.30;;;4.25;;
68593;SDS011;55563;52.416;13.548;2023-04-07T06:54:59;7.28;;;4.50;;
68593;SDS011;55563;52.416;13.548;2023-04-07T06:57:00;8.25;;;4.80;;
68593;SDS011;55563;52.416;13.548;2023-04-07T06:59:01;7.65;;;4.18;;
68593;SDS011;55563;52.416;13.548;2023-04-07T07:01:02;8.10;;;4.70;;
68593;SDS011;55563;52.416;13.548;2023-04-07T07:03:03;8.00;;;4.72;;
68593;SDS011;55563;52.416;13.548;2023-04-07T07:05:04;8.45;;;4.38;;
68593;SDS011;55563;52.416;13.548;2023-04-07T07:07:06;10.88;;;4.68;;
68593;SDS011;55563;52.416;13.548;2023-04-07T07:09:06;8.38;;;4.43;;
68593;SDS011;55563;52.416;13.548;2023-04-07T07:11:07;16.13;;;8.15;;
68593;SDS011;55563;52.416;13.548;2023-04-07T07:13:08;9.50;;;5.20;;
68593;SDS011;55563;52.416;13.548;2023-04-07T07:15:09;8.48;;;4.75;;
68593;SDS011;55563;52.416;13.548;2023-04-07T07:17:10;9.10;;;4.55;;
68593;SDS011;55563;52.416;13.548;2023-04-07T07:19:10;7.72;;;4.70;;
68593;SDS011;55563;52.416;13.548;2023-04-07T07:21:11;8.63;;;4.78;;
68593;SDS011;55563;52.416;13.548;2023-04-07T07:23:12;7.60;;;4.53;;
68593;SDS011;55563;52.416;13.548;2023-04-07T07:25:12;7.43;;;4.45;;
68593;SDS011;55563;52.416;13.548;2023-04-07T07:27:13;8.68;;;4.53;;
68593;SDS011;55563;52.416;13.548;2023-04-07T07:29:14;6.78;;;3.97;;
68593;SDS011;55563;52.416;13.548;2023-04-07T07:31:15;7.15;;;4.32;;
68593;SDS011;55563;52.416;13.548;2023-04-07T07:33:16;9.32;;;5.28;;
68593;SDS011;55563;52.416;13.548;2023-04-07T07:35:16;8.23;;;4.50;;
68593;SDS011;55563;52.416;13.548;2023-04-07T07:37:17;8.20;;;3.97;;
68593;SDS011;55563;52.416;13.548;2023-04-07T07:39:18;8.38;;;4.53;;
68593;SDS011;55563;52.416;13.548;2023-04-07T07:41:19;6.68;;;3.60;;
68593;SDS011;55563;52.416;13.548;2023-04-07T07:43:20;7.60;;;4.40;;
68593;SDS011;55563;52.416;13.548;2023-04-07T07:45:20;7.28;;;4.03;;
68593;SDS011;55563;52.416;13.548;2023-04-07T07:47:21;7.80;;;4.03;;
68593;SDS011;55563;52.416;13.548;2023-04-07T07:49:22;7.20;;;4.38;;
68593;SDS011;55563;52.416;13.548;2023-04-07T07:51:23;6.95;;;4.03;;
68593;SDS011;55563;52.416;13.548;2023-04-07T07:53:23;6.93;;;4.38;;
68593;SDS011;55563;52.416;13.548;2023-04-07T07:55:24;6.70;;;4.10;;
68593;SDS011;55563;52.416;13.548;2023-04-07T07:57:25;7.97;;;4.43;;
68593;SDS011;55563;52.416;13.548;2023-04-07T07:59:26;8.23;;;4.30;;
68593;SDS011;55563;52.416;13.548;2023-04-07T08:01:26;7.10;;;3.92;;
68593;SDS011;55563;52.416;13.548;2023-04-07T08:03:27;7.30;;;4.53;;
68593;SDS011;55563;52.416;13.548;2023-04-07T08:05:27;5.70;;;3.60;;
68593;SDS011;55563;52.416;13.548;2023-04-07T08:07:28;6.28;;;3.83;;
68593;SDS011;55563;52.416;13.548;2023-04-07T08:09:29;7.82;;;4.05;;
68593;SDS011;55563;52.416;13.548;2023-04-07T08:11:31;7.93;;;3.95;;
68593;SDS011;55563;52.416;13.548;2023-04-07T08:13:50;7.35;;;3.70;;
68593;SDS011;55563;52.416;13.548;2023-04-07T08:17:54;5.07;;;2.65;;
68593;SDS011;55563;52.416;13.548;2023-04-07T08:19:54;7.35;;;4.15;;
68593;SDS011;55563;52.416;13.548;2023-04-07T08:21:55;7.75;;;3.88;;
68593;SDS011;55563;52.416;13.548;2023-04-07T08:23:56;5.78;;;3.67;;
68593;SDS011;55563;52.416;13.548;2023-04-07T08:25:57;5.47;;;3.00;;
68593;SDS011;55563;52.416;13.548;2023-04-07T08:27:57;5.30;;;2.90;;
68593;SDS011;55563;52.416;13.548;2023-04-07T08:29:59;5.43;;;3.00;;
68593;SDS011;55563;52.416;13.548;2023-04-07T08:32:01;5.25;;;2.90;;
68593;SDS011;55563;52.416;13.548;2023-04-07T08:34:02;5.05;;;2.95;;
68593;SDS011;55563;52.416;13.548;2023-04-07T08:36:02;5.13;;;3.33;;
68593;SDS011;55563;52.416;13.548;2023-04-07T08:38:03;4.55;;;2.35;;
68593;SDS011;55563;52.416;13.548;2023-04-07T08:40:05;5.20;;;3.22;;
68593;SDS011;55563;52.416;13.548;2023-04-07T08:42:07;5.40;;;3.10;;
68593;SDS011;55563;52.416;13.548;2023-04-07T08:44:09;5.15;;;3.35;;
68593;SDS011;55563;52.416;13.548;2023-04-07T08:46:10;5.13;;;3.45;;
68593;SDS011;55563;52.416;13.548;2023-04-07T08:48:18;4.95;;;3.15;;
68593;SDS011;55563;52.416;13.548;2023-04-07T08:50:26;6.65;;;3.03;;
68593;SDS011;55563;52.416;13.548;2023-04-07T08:52:31;4.97;;;2.90;;
68593;SDS011;55563;52.416;13.548;2023-04-07T08:54:34;4.68;;;2.97;;
68593;SDS011;55563;52.416;13.548;2023-04-07T08:56:37;6.25;;;2.92;;
68593;SDS011;55563;52.416;13.548;2023-04-07T08:58:42;4.22;;;2.38;;
68593;SDS011;55563;52.416;13.548;2023-04-07T09:00:44;5.13;;;2.53;;
68593;SDS011;55563;52.416;13.548;2023-04-07T09:02:45;3.28;;;1.52;;
68593;SDS011;55563;52.416;13.548;2023-04-07T09:04:48;4.45;;;2.80;;
68593;SDS011;55563;52.416;13.548;2023-04-07T09:06:48;3.90;;;2.45;;
68593;SDS011;55563;52.416;13.548;2023-04-07T09:08:49;4.15;;;2.50;;
68593;SDS011;55563;52.416;13.548;2023-04-07T09:10:50;5.85;;;2.88;;
68593;SDS011;55563;52.416;13.548;2023-04-07T09:12:51;5.05;;;2.70;;
68593;SDS011;55563;52.416;13.548;2023-04-07T09:14:51;5.90;;;2.83;;
68593;SDS011;55563;52.416;13.548;2023-04-07T09:16:53;4.45;;;2.50;;
68593;SDS011;55563;52.416;13.548;2023-04-07T09:18:55;5.80;;;3.15;;
68593;SDS011;55563;52.416;13.548;2023-04-07T09:20:56;4.50;;;2.50;;
68593;SDS011;55563;52.416;13.548;2023-04-07T09:22:58;4.55;;;2.80;;
68593;SDS011;55563;52.416;13.548;2023-04-07T09:25:15;3.00;;;2.22;;
68593;SDS011;55563;52.416;13.548;2023-04-07T09:27:18;3.90;;;2.50;;
68593;SDS011;55563;52.416;13.548;2023-04-07T09:29:19;4.03;;;2.50;;
68593;SDS011;55563;52.416;13.548;2023-04-07T09:31:21;4.00;;;2.22;;
68593;SDS011;55563;52.416;13.548;2023-04-07T09:33:25;5.57;;;2.85;;
68593;SDS011;55563;52.416;13.548;2023-04-07T09:35:27;4.32;;;2.50;;
68593;SDS011;55563;52.416;13.548;2023-04-07T09:37:28;4.22;;;2.17;;
68593;SDS011;55563;52.416;13.548;2023-04-07T09:39:29;2.88;;;1.00;;
68593;SDS011;55563;52.416;13.548;2023-04-07T09:41:30;2.20;;;1.30;;
68593;SDS011;55563;52.416;13.548;2023-04-07T09:43:31;2.80;;;1.70;;
68593;SDS011;55563;52.416;13.548;2023-04-07T09:45:31;2.72;;;1.77;;
68593;SDS011;55563;52.416;13.548;2023-04-07T09:47:33;2.67;;;1.80;;
68593;SDS011;55563;52.416;13.548;2023-04-07T09:49:47;3.80;;;1.98;;
68593;SDS011;55563;52.416;13.548;2023-04-07T09:53:59;2.65;;;1.77;;
68593;SDS011;55563;52.416;13.548;2023-04-07T09:56:00;2.42;;;1.50;;
68593;SDS011;55563;52.416;13.548;2023-04-07T09:58:02;2.63;;;1.70;;
68593;SDS011;55563;52.416;13.548;2023-04-07T10:02:24;2.78;;;1.38;;
68593;SDS011;55563;52.416;13.548;2023-04-07T10:06:26;2.30;;;1.50;;
68593;SDS011;55563;52.416;13.548;2023-04-07T10:08:27;3.20;;;1.73;;
68593;SDS011;55563;52.416;13.548;2023-04-07T10:10:31;3.42;;;1.90;;
68593;SDS011;55563;52.416;13.548;2023-04-07T10:12:33;2.60;;;1.67;;
68593;SDS011;55563;52.416;13.548;2023-04-07T10:14:36;2.78;;;2.00;;
68593;SDS011;55563;52.416;13.548;2023-04-07T10:16:37;1.70;;;1.20;;
68593;SDS011;55563;52.416;13.548;2023-04-07T10:18:38;2.50;;;1.40;;
68593;SDS011;55563;52.416;13.548;2023-04-07T10:20:40;1.92;;;1.27;;
68593;SDS011;55563;52.416;13.548;2023-04-07T10:22:41;2.25;;;1.13;;
68593;SDS011;55563;52.416;13.548;2023-04-07T10:24:53;2.58;;;1.80;;
68593;SDS011;55563;52.416;13.548;2023-04-07T10:26:58;2.80;;;1.52;;
68593;SDS011;55563;52.416;13.548;2023-04-07T10:29:05;3.35;;;2.00;;
68593;SDS011;55563;52.416;13.548;2023-04-07T10:31:10;2.20;;;1.50;;
68593;SDS011;55563;52.416;13.548;2023-04-07T10:35:12;3.08;;;1.85;;
68593;SDS011;55563;52.416;13.548;2023-04-07T10:37:13;4.50;;;2.08;;
68593;SDS011;55563;52.416;13.548;2023-04-07T10:41:34;2.35;;;1.85;;
68593;SDS011;55563;52.416;13.548;2023-04-07T10:43:38;2.42;;;1.55;;
68593;SDS011;55563;52.416;13.548;2023-04-07T10:48:08;3.67;;;2.50;;
68593;SDS011;55563;52.416;13.548;2023-04-07T10:52:25;3.75;;;2.60;;
68593;SDS011;55563;52.416;13.548;2023-04-07T10:54:25;3.42;;;2.65;;
68593;SDS011;55563;52.416;13.548;2023-04-07T10:56:35;4.10;;;2.70;;
68593;SDS011;55563;52.416;13.548;2023-04-07T10:59:15;2.58;;;1.92;;
68593;SDS011;55563;52.416;13.548;2023-04-07T11:01:16;3.40;;;1.73;;
68593;SDS011;55563;52.416;13.548;2023-04-07T11:03:18;3.97;;;1.80;;
68593;SDS011;55563;52.416;13.548;2023-04-07T11:05:20;2.97;;;2.03;;
68593;SDS011;55563;52.416;13.548;2023-04-07T11:07:41;3.05;;;1.83;;
68593;SDS011;55563;52.416;13.548;2023-04-07T11:09:43;3.08;;;1.85;;
68593;SDS011;55563;52.416;13.548;2023-04-07T11:11:43;3.05;;;1.50;;
68593;SDS011;55563;52.416;13.548;2023-04-07T11:13:47;2.70;;;1.83;;
68593;SDS011;55563;52.416;13.548;2023-04-07T11:15:49;2.38;;;1.73;;
68593;SDS011;55563;52.416;13.548;2023-04-07T11:18:23;2.13;;;1.33;;
68593;SDS011;55563;52.416;13.548;2023-04-07T11:20:13;3.15;;;2.10;;
68593;SDS011;55563;52.416;13.548;2023-04-07T11:22:16;4.05;;;2.08;;
68593;SDS011;55563;52.416;13.548;2023-04-07T11:24:48;3.28;;;2.13;;
68593;SDS011;55563;52.416;13.548;2023-04-07T11:26:38;4.20;;;2.13;;
68593;SDS011;55563;52.416;13.548;2023-04-07T11:28:47;3.53;;;2.13;;
68593;SDS011;55563;52.416;13.548;2023-04-07T11:30:53;3.55;;;2.03;;
68593;SDS011;55563;52.416;13.548;2023-04-07T11:32:55;3.92;;;2.35;;
68593;SDS011;55563;52.416;13.548;2023-04-07T11:34:56;3.30;;;1.98;;
68593;SDS011;55563;52.416;13.548;2023-04-07T11:36:57;4.45;;;2.40;;
68593;SDS011;55563;52.416;13.548;2023-04-07T11:39:18;3.78;;;2.38;;
68593;SDS011;55563;52.416;13.548;2023-04-07T11:41:20;6.20;;;3.45;;
68593;SDS011;55563;52.416;13.548;2023-04-07T11:43:22;4.35;;;2.50;;
68593;SDS011;55563;52.416;13.548;2023-04-07T11:45:24;3.88;;;2.55;;
68593;SDS011;55563;52.416;13.548;2023-04-07T11:47:37;3.65;;;2.25;;
68593;SDS011;55563;52.416;13.548;2023-04-07T11:49:47;4.88;;;2.45;;
68593;SDS011;55563;52.416;13.548;2023-04-07T11:51:47;4.85;;;3.03;;
68593;SDS011;55563;52.416;13.548;2023-04-07T11:53:56;4.28;;;2.50;;
68593;SDS011;55563;52.416;13.548;2023-04-07T11:55:59;5.22;;;3.45;;
68593;SDS011;55563;52.416;13.548;2023-04-07T11:58:05;7.63;;;4.43;;
68593;SDS011;55563;52.416;13.548;2023-04-07T12:00:10;9.57;;;6.07;;
68593;SDS011;55563;52.416;13.548;2023-04-07T12:02:18;9.38;;;5.60;;
68593;SDS011;55563;52.416;13.548;2023-04-07T12:04:30;9.55;;;5.95;;
68593;SDS011;55563;52.416;13.548;2023-04-07T12:06:32;9.38;;;5.75;;
68593;SDS011;55563;52.416;13.548;2023-04-07T12:08:36;10.00;;;6.03;;
68593;SDS011;55563;52.416;13.548;2023-04-07T12:10:38;10.52;;;6.22;;
68593;SDS011;55563;52.416;13.548;2023-04-07T12:12:40;11.95;;;7.47;;
68593;SDS011;55563;52.416;13.548;2023-04-07T12:14:45;11.75;;;7.18;;
68593;SDS011;55563;52.416;13.548;2023-04-07T12:16:47;11.45;;;6.85;;
68593;SDS011;55563;52.416;13.548;2023-04-07T12:18:47;12.07;;;7.90;;
68593;SDS011;55563;52.416;13.548;2023-04-07T12:20:48;12.25;;;7.30;;
68593;SDS011;55563;52.416;13.548;2023-04-07T12:22:50;12.45;;;7.47;;
68593;SDS011;55563;52.416;13.548;2023-04-07T12:24:50;13.65;;;8.18;;
68593;SDS011;55563;52.416;13.548;2023-04-07T12:26:51;11.90;;;7.03;;
68593;SDS011;55563;52.416;13.548;2023-04-07T12:28:52;11.07;;;6.20;;
68593;SDS011;55563;52.416;13.548;2023-04-07T12:32:54;11.43;;;5.95;;
68593;SDS011;55563;52.416;13.548;2023-04-07T12:34:55;12.50;;;6.97;;
68593;SDS011;55563;52.416;13.548;2023-04-07T12:36:56;13.00;;;6.95;;
68593;SDS011;55563;52.416;13.548;2023-04-07T12:38:56;11.77;;;6.53;;
68593;SDS011;55563;52.416;13.548;2023-04-07T12:40:58;13.07;;;7.93;;